tititudorancea.com
Station Historical Data
Daily Summary for March 5, 2018 Units:  Metric    English   Both
« Previous Day
Next Day »
Daily Weekly Monthly Yearly Custom
  High: Low: Average:
Temperature: -17.8 °C 7.1 °C 13.7 °C
Dew Point: -17.8 °C 5.4 °C 7.3 °C
Humidity: Humidity % 42 % 68 %
Wind Speed: 0 km/h 0 km/h 11.9 km/h
Wind Gust: 0 km/h - -
Wind:- - SSW
Pressure: 0 hPa 1016.1 hPa -
Precipitation: 0 mm    
Historical Graphs
 
 
Ararat weather Find more about Weather in Ararat, AU


 



 


Tabular Data for March 5, 2018
Time Temperature Dew Point Pressure Wind Wind Speed Wind Gust Humidity Rainfall Rate (Hourly)
-17.8 °C -17.8 °C 0 hPa Calm     Humidity % 0 mm
00:02 10.9 °C 7 °C 1016.8 hPa South 6.1 km/h 7.4 km/h 77 % 0 mm
00:07 10.8 °C 7.1 °C 1016.8 hPa South 6.6 km/h 8 km/h 78 % 0 mm
00:12 10.7 °C 7 °C 1016.8 hPa South 5.1 km/h 8 km/h 78 % 0 mm
00:17 10.6 °C 6.9 °C 1016.8 hPa South 2.6 km/h 7.4 km/h 78 % 0 mm
00:22 10.5 °C 7 °C 1016.8 hPa South 6.6 km/h 9.3 km/h 79 % 0 mm
00:27 10.3 °C 7.1 °C 1016.8 hPa South 6.9 km/h 9.3 km/h 80 % 0 mm
00:32 10.2 °C 6.9 °C 1016.8 hPa North 6 km/h 7.4 km/h 80 % 0 mm
00:37 10.2 °C 6.9 °C 1016.8 hPa South 3.7 km/h 7.4 km/h 80 % 0 mm
00:42 10.1 °C 6.9 °C 1016.8 hPa South 6.4 km/h 9.3 km/h 81 % 0 mm
00:47 10 °C 6.9 °C 1016.8 hPa South 2.4 km/h 5.6 km/h 81 % 0 mm
00:52 9.9 °C 6.8 °C 1016.5 hPa North 4.3 km/h 5.6 km/h 81 % 0 mm
00:57 9.8 °C 6.7 °C 1016.8 hPa North 4.5 km/h 7.4 km/h 81 % 0 mm
01:02 9.7 °C 6.8 °C 1016.8 hPa North 3.2 km/h 3.7 km/h 82 % 0 mm
01:07 9.6 °C 6.7 °C 1016.8 hPa South 0.8 km/h 5.6 km/h 82 % 0 mm
01:12 9.5 °C 6.6 °C 1016.8 hPa Calm   1.9 km/h 82 % 0 mm
01:17 9.4 °C 6.4 °C 1016.8 hPa South 1.6 km/h 5.6 km/h 82 % 0 mm
01:22 9.3 °C 6.6 °C 1016.5 hPa North 0.5 km/h 1.9 km/h 83 % 0 mm
01:27 9.2 °C 6.5 °C 1016.8 hPa North 0.2 km/h   83 % 0 mm
01:32 9.2 °C 6.4 °C 1016.8 hPa South 0.2 km/h 1.9 km/h 83 % 0 mm
01:37 9.1 °C 6.5 °C 1016.8 hPa Calm     84 % 0 mm
01:42 9 °C 6.4 °C 1016.8 hPa South 1.4 km/h 3.7 km/h 84 % 0 mm
01:47 8.9 °C 6.3 °C 1016.5 hPa Calm     84 % 0 mm
01:52 8.8 °C 6.2 °C 1016.5 hPa North 1.4 km/h 1.9 km/h 84 % 0 mm
01:57 8.8 °C 6.4 °C 1016.5 hPa South 3.1 km/h 3.7 km/h 85 % 0 mm
02:02 8.7 °C 6.3 °C 1016.5 hPa North 5.1 km/h 6.4 km/h 85 % 0 mm
02:07 8.7 °C 6.5 °C 1016.5 hPa South 5.1 km/h 7.4 km/h 86 % 0 mm
02:12 8.8 °C 6.6 °C 1016.5 hPa South 6 km/h 8 km/h 86 % 0 mm
02:17 8.9 °C 6.7 °C 1016.5 hPa North 5.1 km/h 7.4 km/h 86 % 0 mm
02:26 9 °C 6.8 °C 1016.8 hPa South 7.4 km/h 8 km/h 86 % 0 mm
02:31 9 °C 6.8 °C 1016.8 hPa North 2.7 km/h 5.6 km/h 86 % 0 mm
02:36 9.1 °C 6.8 °C 1016.8 hPa North 3.7 km/h 11.1 km/h 86 % 0 mm
02:41 9.1 °C 6.8 °C 1016.8 hPa South 4.3 km/h 6.4 km/h 86 % 0 mm
02:46 9.1 °C 6.7 °C 1016.8 hPa North 4 km/h 7.4 km/h 85 % 0 mm
02:51 9 °C 6.6 °C 1016.8 hPa North 0.2 km/h 1.9 km/h 85 % 0 mm
02:56 8.9 °C 6.6 °C 1016.8 hPa South 1.4 km/h 1.9 km/h 85 % 0 mm
03:01 8.8 °C 6.6 °C 1016.8 hPa North 2.7 km/h 5.6 km/h 86 % 0 mm
03:06 8.7 °C 6.5 °C 1016.8 hPa North 2.4 km/h 3.7 km/h 86 % 0 mm
03:11 8.7 °C 6.4 °C 1016.8 hPa North 4.2 km/h 5.6 km/h 86 % 0 mm
03:16 8.6 °C 6.4 °C 1016.5 hPa South 5.3 km/h 5.6 km/h 86 % 0 mm
03:21 8.6 °C 6.6 °C 1016.5 hPa South 7.2 km/h 7.4 km/h 87 % 0 mm
03:26 8.7 °C 6.6 °C 1016.5 hPa North 6.6 km/h 9.3 km/h 87 % 0 mm
03:30 8.6 °C 6.6 °C 1016.1 hPa North 5.6 km/h 9.3 km/h 87 % 0 mm
03:35 8.5 °C 6.4 °C 1016.1 hPa South 6.3 km/h 11.1 km/h 87 % 0 mm
03:40 8.4 °C 6.3 °C 1016.1 hPa South 3.2 km/h 5.6 km/h 87 % 0 mm
03:45 8.3 °C 6.3 °C 1016.1 hPa South 2.6 km/h 5.6 km/h 87 % 0 mm
03:50 8.2 °C 6.1 °C 1016.1 hPa South 2.3 km/h 5.6 km/h 87 % 0 mm
03:55 8.1 °C 6 °C 1016.1 hPa South 3.4 km/h 5.6 km/h 87 % 0 mm
04:00 7.8 °C 5.8 °C 1016.1 hPa South 2.4 km/h 5.6 km/h 87 % 0 mm
04:05 7.7 °C 5.8 °C 1016.1 hPa South 0.6 km/h 3.7 km/h 88 % 0 mm
04:10 7.5 °C 5.7 °C 1016.1 hPa North 0.5 km/h 1.9 km/h 88 % 0 mm
04:15 7.4 °C 5.6 °C 1016.1 hPa North 0.8 km/h 3.7 km/h 88 % 0 mm
04:20 7.2 °C 5.4 °C 1016.1 hPa South 3.4 km/h 5.6 km/h 88 % 0 mm
04:25 7.2 °C 5.5 °C 1016.1 hPa South 3.5 km/h 5.6 km/h 89 % 0 mm
04:30 7.1 °C 5.4 °C 1016.1 hPa North 2.9 km/h 5.6 km/h 89 % 0 mm
04:35 7.2 °C 5.7 °C 1016.1 hPa South 3.4 km/h 5.6 km/h 90 % 0 mm
04:40 7.3 °C 5.9 °C 1016.1 hPa South 7.4 km/h 9.7 km/h 91 % 0 mm
04:45 7.8 °C 6.4 °C 1016.1 hPa South 8.4 km/h 14.5 km/h 91 % 0 mm
04:50 8 °C 6.6 °C 1016.1 hPa South 6.4 km/h 13 km/h 91 % 0 mm
04:55 8.1 °C 6.7 °C 1016.1 hPa South 9.3 km/h 13 km/h 91 % 0 mm
05:00 8.2 °C 6.8 °C 1016.1 hPa South 8.4 km/h 13 km/h 91 % 0 mm
05:05 8.2 °C 6.8 °C 1016.1 hPa South 8.9 km/h 11.1 km/h 91 % 0 mm
05:10 8.2 °C 6.8 °C 1016.1 hPa South 7.7 km/h 11.1 km/h 91 % 0 mm
05:15 8.2 °C 6.6 °C 1016.1 hPa South 5.3 km/h 9.3 km/h 90 % 0 mm
05:20 8.1 °C 6.7 °C 1016.1 hPa North 2.4 km/h 7.4 km/h 91 % 0 mm
05:25 8 °C 6.6 °C 1016.1 hPa North 1.6 km/h 5.6 km/h 91 % 0 mm
05:30 7.8 °C 6.3 °C 1016.1 hPa North 2.3 km/h 5.6 km/h 90 % 0 mm
05:35 7.7 °C 6.2 °C 1016.1 hPa South 6.1 km/h 9.3 km/h 90 % 0 mm
05:40 7.7 °C 6.3 °C 1016.1 hPa South 3.1 km/h 5.6 km/h 91 % 0 mm
05:45 7.6 °C 6.2 °C 1016.5 hPa South 0.6 km/h 5.6 km/h 91 % 0 mm
05:50 7.6 °C 6.2 °C 1016.5 hPa Calm     91 % 0 mm
05:55 7.4 °C 5.9 °C 1016.5 hPa Calm     90 % 0 mm
06:00 7.3 °C 5.7 °C 1016.5 hPa South 0.3 km/h 3.7 km/h 90 % 0 mm
06:05 7.3 °C 5.9 °C 1016.5 hPa North 2.6 km/h 3.7 km/h 91 % 0 mm
06:10 7.3 °C 5.9 °C 1016.5 hPa South 4.7 km/h 5.6 km/h 91 % 0 mm
06:15 7.6 °C 6.3 °C 1016.5 hPa South 8.7 km/h 11.1 km/h 92 % 0 mm
06:20 8.1 °C 6.9 °C 1016.5 hPa South 8.5 km/h 14.8 km/h 92 % 0 mm
06:25 8.5 °C 7.1 °C 1016.8 hPa North 10.5 km/h 18.5 km/h 91 % 0 mm
06:30 8.8 °C 7.2 °C 1016.8 hPa South 8.7 km/h 11.1 km/h 90 % 0 mm
06:35 8.9 °C 7.2 °C 1016.8 hPa South 7.4 km/h 11.1 km/h 89 % 0 mm
06:40 8.9 °C 7.7 °C 1016.8 hPa South 7.9 km/h 9.3 km/h 92 % 0 mm
06:45 8.9 °C 7 °C 1016.8 hPa South 7.7 km/h 9.3 km/h 88 % 0 mm
06:50 8.8 °C 6.9 °C 1016.8 hPa South 5.5 km/h 13 km/h 88 % 0 mm
06:55 8.7 °C 6.7 °C 1016.8 hPa South 7.7 km/h 9.3 km/h 87 % 0 mm
07:00 8.6 °C 6.7 °C 1016.8 hPa South 8.2 km/h 14.8 km/h 88 % 0 mm
07:05 8.5 °C 6.6 °C 1017.2 hPa North 7.2 km/h 16.7 km/h 88 % 0 mm
07:10 8.4 °C 6.6 °C 1017.2 hPa North 7.6 km/h 13 km/h 88 % 0 mm
07:15 8.4 °C 6.6 °C 1017.2 hPa South 7.9 km/h 13 km/h 88 % 0 mm
07:20 8.5 °C 6.6 °C 1017.2 hPa South 5.8 km/h 14.8 km/h 88 % 0 mm
07:25 8.6 °C 6.7 °C 1017.2 hPa North 8.5 km/h 14.8 km/h 88 % 0 mm
07:30 8.6 °C 6.7 °C 1017.2 hPa North 7.2 km/h 11.1 km/h 88 % 0 mm
07:35 8.4 °C 6.6 °C 1017.2 hPa South 9 km/h 13 km/h 88 % 0 mm
07:41 8.5 °C 6.6 °C 1017.5 hPa South 10.3 km/h 13 km/h 88 % 0 mm
07:46 8.5 °C 6.6 °C 1017.5 hPa South 9.8 km/h 13 km/h 88 % 0 mm
07:51 8.6 °C 6.7 °C 1017.5 hPa North 5.8 km/h 11.1 km/h 88 % 0 mm
07:56 8.5 °C 6.6 °C 1017.8 hPa South 8.4 km/h 13 km/h 88 % 0 mm
08:01 8.5 °C 6.6 °C 1017.8 hPa South 8.7 km/h 13 km/h 88 % 0 mm
08:06 8.6 °C 6.7 °C 1017.8 hPa South 9.5 km/h 14.8 km/h 88 % 0 mm
08:11 8.7 °C 7 °C 1017.8 hPa South 6.9 km/h 11.1 km/h 89 % 0 mm
08:16 8.8 °C 6.9 °C 1017.8 hPa South 7.6 km/h 14.8 km/h 88 % 0 mm
08:21 9.1 °C 7.3 °C 1017.8 hPa South 8.9 km/h 14.8 km/h 89 % 0 mm
08:26 9.3 °C 7.4 °C 1018.2 hPa North 7.9 km/h 13 km/h 88 % 0 mm
08:31 9.6 °C 7.7 °C 1018.2 hPa North 10.8 km/h 18.5 km/h 88 % 0 mm
08:36 9.8 °C 7.7 °C 1018.2 hPa South 8.9 km/h 13 km/h 87 % 0 mm
08:41 10 °C 7.9 °C 1018.5 hPa South 6.1 km/h 14.8 km/h 87 % 0 mm
08:46 10.3 °C 8.1 °C 1018.5 hPa South 8.9 km/h 11.1 km/h 86 % 0 mm
08:51 10.6 °C 8.4 °C 1018.5 hPa South 9.2 km/h 16.7 km/h 86 % 0 mm
08:56 10.8 °C 8.4 °C 1018.5 hPa South 10 km/h 16.7 km/h 85 % 0 mm
09:01 11.1 °C 8.7 °C 1018.5 hPa South 7.4 km/h 9.7 km/h 85 % 0 mm
09:06 11.5 °C 8.9 °C 1018.5 hPa South 11.6 km/h 14.8 km/h 84 % 0 mm
09:11 11.8 °C 9.2 °C 1018.5 hPa South 11.9 km/h 18.5 km/h 84 % 0 mm
09:16 12.2 °C 9.4 °C 1018.5 hPa South 13 km/h 18.5 km/h 83 % 0 mm
09:21 12.8 °C 9.8 °C 1018.5 hPa South 12.6 km/h 25.7 km/h 82 % 0 mm
09:26 13.2 °C 9.8 °C 1018.5 hPa South 11.6 km/h 18.5 km/h 80 % 0 mm
09:31 13.4 °C 9.8 °C 1018.5 hPa South 12.7 km/h 14.8 km/h 79 % 0 mm
09:36 13.4 °C 9.5 °C 1018.8 hPa South 11.1 km/h 18.5 km/h 77 % 0 mm
09:41 13.4 °C 9.5 °C 1018.8 hPa South 10.5 km/h 16.7 km/h 77 % 0 mm
09:46 13.5 °C 9.6 °C 1018.8 hPa South 11.1 km/h 16.7 km/h 77 % 0 mm
09:51 13.6 °C 9.4 °C 1018.8 hPa South 13.7 km/h 18.5 km/h 76 % 0 mm
09:56 13.7 °C 9.8 °C 1018.8 hPa South 9.3 km/h 14.5 km/h 77 % 0 mm
10:01 14.3 °C 9.9 °C 1018.8 hPa SSE 14.2 km/h 22.2 km/h 75 % 0 mm
10:06 14.7 °C 9.7 °C 1018.8 hPa SSE 13.5 km/h 22.2 km/h 72 % 0 mm
10:11 14.5 °C 9.5 °C 1019.2 hPa South 20.9 km/h 29.6 km/h 72 % 0 mm
10:16 14.7 °C 9.5 °C 1019.2 hPa South 15.8 km/h 24.1 km/h 71 % 0 mm
10:21 15.1 °C 9.2 °C 1019.2 hPa South 17.4 km/h 25.9 km/h 68 % 0 mm
10:26 15.2 °C 9.1 °C 1019.2 hPa South 13.7 km/h 20.4 km/h 67 % 0 mm
10:31 15.5 °C 9.2 °C 1019.2 hPa South 12.7 km/h 20.4 km/h 66 % 0 mm
10:36 16 °C 8.9 °C 1019.2 hPa SSE 21.2 km/h 37 km/h 63 % 0 mm
10:41 16.4 °C 8.8 °C 1019.2 hPa South 18.8 km/h 29 km/h 61 % 0 mm
10:46 16.5 °C 8.2 °C 1019.2 hPa South 20.4 km/h 29.6 km/h 58 % 0 mm
10:51 16.5 °C 8.7 °C 1019.2 hPa SSE 18.8 km/h 29.6 km/h 60 % 0 mm
10:56 16.3 °C 7.7 °C 1019.2 hPa SSE 11.9 km/h 20.9 km/h 57 % 0 mm
11:01 16.7 °C 7.3 °C 1019.2 hPa SSE 22.2 km/h 31.5 km/h 54 % 0 mm
11:06 16.8 °C 7.4 °C 1019.2 hPa SE 15.9 km/h 27.8 km/h 54 % 0 mm
11:11 17 °C 7.1 °C 1019.2 hPa SSE 18 km/h 22.2 km/h 52 % 0 mm
11:16 17.1 °C 6.6 °C 1019.2 hPa SSW 23.3 km/h 35.2 km/h 50 % 0 mm
11:21 16.8 °C 6.1 °C 1019.5 hPa South 21.6 km/h 29.6 km/h 49 % 0 mm
11:26 17.1 °C 6.9 °C 1019.5 hPa SE 14.6 km/h 20.9 km/h 51 % 0 mm
11:31 17.4 °C 7.2 °C 1019.2 hPa SE 14 km/h 24.1 km/h 51 % 0 mm
11:36 17.8 °C 6.9 °C 1019.2 hPa SE 20 km/h 29.6 km/h 49 % 0 mm
11:41 18.1 °C 6.6 °C 1019.2 hPa SSE 17.9 km/h 27.4 km/h 47 % 0 mm
11:46 18.1 °C 6.6 °C 1019.2 hPa SSE 18 km/h 24.1 km/h 47 % 0 mm
11:51 18.4 °C 6.9 °C 1019.2 hPa SSE 18.7 km/h 25.9 km/h 47 % 0 mm
11:56 18.2 °C 6.7 °C 1019.2 hPa South 17.2 km/h 25.9 km/h 47 % 0 mm
12:01 17.6 °C 7.1 °C 1019.2 hPa South 20.3 km/h 27.8 km/h 50 % 0 mm
12:06 17.6 °C 7.6 °C 1019.2 hPa South 15.4 km/h 27.8 km/h 52 % 0 mm
12:11 17.6 °C 7.3 °C 1019.2 hPa SSE 19.6 km/h 31.5 km/h 51 % 0 mm
12:16 17.7 °C 6.5 °C 1019.5 hPa South 23.5 km/h 29.6 km/h 48 % 0 mm
12:21 17.5 °C 6.1 °C 1019.2 hPa South 24.6 km/h 32.2 km/h 47 % 0 mm
12:26 17.7 °C 6.5 °C 1019.2 hPa South 22.2 km/h 33.3 km/h 48 % 0 mm
12:31 18.3 °C 6.4 °C 1019.2 hPa South 16.4 km/h 29.6 km/h 46 % 0 mm
12:36 18.8 °C 6.6 °C 1019.2 hPa South 18 km/h 27.8 km/h 45 % 0 mm
12:41 19.1 °C 6.8 °C 1019.2 hPa South 23 km/h 29.6 km/h 45 % 0 mm
12:46 19 °C 6.4 °C 1019.2 hPa South 21.6 km/h 31.5 km/h 44 % 0 mm
12:51 18.9 °C 6.7 °C 1019.2 hPa SSW 20.8 km/h 29.6 km/h 45 % 0 mm
12:56 18.7 °C 6.6 °C 1019.2 hPa North 24.5 km/h 29.6 km/h 45 % 0 mm
13:01 18.7 °C 7.5 °C 1019.2 hPa SSW 14.5 km/h 25.9 km/h 48 % 0 mm
13:06 18.9 °C 6.7 °C 1019.2 hPa SSW 19 km/h 38.9 km/h 45 % 0 mm
13:11 19 °C 6.8 °C 1019.2 hPa South 22.7 km/h 42.6 km/h 45 % 0 mm
13:16 18.9 °C 6.4 °C 1019.2 hPa North 29.8 km/h 38.9 km/h 44 % 0 mm
13:21 19 °C 6.8 °C 1019.2 hPa SSW 21.6 km/h 24.1 km/h 45 % 0 mm
13:27 18.9 °C 6.7 °C 1019.2 hPa South 23 km/h 27.8 km/h 45 % 0 mm
13:32 18.8 °C 6.9 °C 1019.2 hPa South 26.4 km/h 42.6 km/h 46 % 0 mm
13:37 18.5 °C 7.6 °C 1019.2 hPa South 19.8 km/h 25.7 km/h 49 % 0 mm
13:42 18.6 °C 7.9 °C 1019.5 hPa SSE 19 km/h 27.8 km/h 50 % 0 mm
13:47 18.3 °C 7.9 °C 1019.5 hPa South 26.7 km/h 37 km/h 51 % 0 mm
13:52 18.2 °C 8.2 °C 1019.5 hPa North 25.9 km/h 33.3 km/h 52 % 0 mm
13:57 18.3 °C 8.2 °C 1019.2 hPa SSW 29.8 km/h 38.9 km/h 52 % 0 mm
14:02 18.2 °C 8.5 °C 1019.5 hPa SW 27.4 km/h 35.2 km/h 53 % 0 mm
14:07 18.6 °C 8.8 °C 1019.5 hPa SSE 25.1 km/h 35.2 km/h 53 % 0 mm
14:12 18.3 °C 8.2 °C 1019.5 hPa SSW 24.5 km/h 37 km/h 52 % 0 mm
14:17 18.6 °C 8.5 °C 1019.5 hPa South 18.5 km/h 27.8 km/h 52 % 0 mm
14:22 18.4 °C 8.1 °C 1019.5 hPa SSE 19 km/h 29.6 km/h 51 % 0 mm
14:27 18.8 °C 8.2 °C 1019.5 hPa South 19.2 km/h 29.6 km/h 50 % 0 mm
14:32 19.1 °C 7.8 °C 1019.2 hPa South 15.1 km/h 24.1 km/h 48 % 0 mm
14:37 19.2 °C 7.9 °C 1019.2 hPa South 18.2 km/h 33.8 km/h 48 % 0 mm
14:42 18.8 °C 7.9 °C 1019.2 hPa SE 19.8 km/h 31.5 km/h 49 % 0 mm
14:47 19.1 °C 7.5 °C 1019.2 hPa South 14.3 km/h 31.5 km/h 47 % 0 mm
14:52 19.2 °C 7.6 °C 1019.2 hPa South 20 km/h 37 km/h 47 % 0 mm
14:57 19.3 °C 7.7 °C 1019.2 hPa SSW 18 km/h 27.4 km/h 47 % 0 mm
15:02 19.2 °C 7.6 °C 1019.5 hPa South 22.4 km/h 33.3 km/h 47 % 0 mm
15:07 18.8 °C 7.6 °C 1019.5 hPa SSW 21.4 km/h 27.8 km/h 48 % 0 mm
15:12 18.9 °C 7.9 °C 1019.2 hPa SSE 16.1 km/h 27.4 km/h 49 % 0 mm
15:17 19.3 °C 8 °C 1019.2 hPa SE 16.4 km/h 29 km/h 48 % 0 mm
15:22 19.2 °C 7.9 °C 1019.2 hPa SSE 21.6 km/h 31.5 km/h 48 % 0 mm
15:27 18.8 °C 8.1 °C 1019.2 hPa SE 22.2 km/h 35.2 km/h 50 % 0 mm
15:32 18.8 °C 8.2 °C 1019.2 hPa SSE 18.8 km/h 31.5 km/h 50 % 0 mm
15:37 19.3 °C 8.3 °C 1019.2 hPa South 17.7 km/h 33.3 km/h 49 % 0 mm
15:42 19.4 °C 8.2 °C 1019.2 hPa South 20.3 km/h 31.5 km/h 48 % 0 mm
15:47 19.6 °C 8 °C 1019.2 hPa SE 20.1 km/h 27.8 km/h 47 % 0 mm
15:52 19.2 °C 7.9 °C 1019.2 hPa South 16.1 km/h 22.2 km/h 48 % 0 mm
15:57 19.2 °C 7.9 °C 1019.2 hPa SSE 12.1 km/h 29.6 km/h 48 % 0 mm
16:02 19.1 °C 7.8 °C 1019.2 hPa SSW 21.6 km/h 31.5 km/h 48 % 0 mm
16:07 18.9 °C 8 °C 1019.2 hPa SE 15.1 km/h 29 km/h 49 % 0 mm
16:12 19.3 °C 8.1 °C 1018.8 hPa SSW 15.8 km/h 29.6 km/h 48 % 0 mm
16:17 19.9 °C 7.6 °C 1019.2 hPa SE 13.8 km/h 24.1 km/h 45 % 0 mm
16:22 19.8 °C 7.8 °C 1019.2 hPa SSE 16.7 km/h 29.6 km/h 46 % 0 mm
16:27 19.4 °C 7.8 °C 1019.2 hPa SSE 19.5 km/h 27.8 km/h 47 % 0 mm
16:32 19.1 °C 7.5 °C 1019.2 hPa SSE 18.5 km/h 29.6 km/h 47 % 0 mm
16:37 19.6 °C 7.6 °C 1019.2 hPa SSE 16.3 km/h 25.9 km/h 46 % 0 mm
16:42 19.4 °C 7.5 °C 1019.2 hPa South 17.4 km/h 22.5 km/h 46 % 0 mm
16:47 19.2 °C 7 °C 1018.8 hPa SSE 14.8 km/h 20.4 km/h 45 % 0 mm
16:52 19.3 °C 7.1 °C 1018.8 hPa North 21.6 km/h 32.2 km/h 45 % 0 mm
16:57 19.6 °C 6.9 °C 1018.8 hPa South 20.4 km/h 31.5 km/h 44 % 0 mm
17:02 19.8 °C 6.9 °C 1018.8 hPa South 18.8 km/h 27.8 km/h 43 % 0 mm
17:07 19.7 °C 6.7 °C 1018.8 hPa South 15.1 km/h 24.1 km/h 43 % 0 mm
17:12 19.9 °C 6.6 °C 1018.8 hPa South 15.4 km/h 19.3 km/h 42 % 0 mm
17:17 19.7 °C 6.8 °C 1018.8 hPa North 11.9 km/h 18.5 km/h 43 % 0 mm
17:22 19.8 °C 6.8 °C 1018.8 hPa SSW 18.3 km/h 22.5 km/h 43 % 0 mm
17:27 20 °C 6.7 °C 1018.8 hPa South 15 km/h 18.5 km/h 42 % 0 mm
17:32 20.2 °C 6.9 °C 1018.8 hPa South 11.7 km/h 18.5 km/h 42 % 0 mm
17:37 20.3 °C 7 °C 1018.8 hPa SSE 17.9 km/h 24.1 km/h 42 % 0 mm
17:42 19.9 °C 6.9 °C 1018.8 hPa SE 14.6 km/h 31.5 km/h 43 % 0 mm
17:47 19.7 °C 6.7 °C 1018.8 hPa South 17.4 km/h 31.5 km/h 43 % 0 mm
17:52 19.8 °C 6.8 °C 1018.8 hPa South 9.2 km/h 25.9 km/h 43 % 0 mm
17:54 19.9 °C 7 °C 1018.8 hPa SSE 10.5 km/h 27.8 km/h 43 % 0 mm
17:59 19.9 °C 6.9 °C 1018.8 hPa SE 15.8 km/h 29.6 km/h 43 % 0 mm
18:04 19.7 °C 6.8 °C 1018.8 hPa SE 18.3 km/h 31.5 km/h 43 % 0 mm
18:09 19.6 °C 6.7 °C 1018.8 hPa SSE 17.2 km/h 27.8 km/h 43 % 0 mm
18:14 19.2 °C 6.6 °C 1019.2 hPa SSE 21.2 km/h 24.1 km/h 44 % 0 mm
18:19 18.7 °C 6.5 °C 1019.2 hPa SSE 11.1 km/h 27.8 km/h 45 % 0 mm
18:24 18.9 °C 6.7 °C 1019.2 hPa South 20.3 km/h 20.3 km/h 45 % 0 mm
18:29 19.3 °C 6.7 °C 1019.2 hPa South 12.7 km/h 27.4 km/h 44 % 0 mm
18:34 19.3 °C 6.7 °C 1019.2 hPa South 10.6 km/h 22.2 km/h 44 % 0 mm
18:39 19.4 °C 6.8 °C 1019.2 hPa South 12.1 km/h 20.4 km/h 44 % 0 mm
18:44 19.3 °C 6.4 °C 1019.2 hPa SSE 14.6 km/h 24.1 km/h 43 % 0 mm
18:49 19 °C 6.4 °C 1019.5 hPa South 20.6 km/h 29.6 km/h 44 % 0 mm
18:54 18.7 °C 6.6 °C 1019.5 hPa SSE 19.3 km/h 19.3 km/h 45 % 0 mm
18:59 18.7 °C 6.8 °C 1019.5 hPa South 15.8 km/h 27.8 km/h 46 % 0 mm
19:04 18.7 °C 6.8 °C 1019.5 hPa South 19.5 km/h 24.1 km/h 46 % 0 mm
19:09 18.6 °C 6.8 °C 1019.5 hPa South 11.1 km/h 20.4 km/h 46 % 0 mm
19:14 18.6 °C 7.1 °C 1019.9 hPa South 10.1 km/h 31.5 km/h 47 % 0 mm
19:19 18.4 °C 6.9 °C 1019.9 hPa SSE 16.7 km/h 29.6 km/h 47 % 0 mm
19:25 18.1 °C 6.9 °C 1019.9 hPa SSE 12.6 km/h 18.5 km/h 48 % 0 mm
19:30 17.8 °C 6.9 °C 1019.9 hPa South 18.7 km/h 29.6 km/h 49 % 0 mm
19:35 17.7 °C 7.2 °C 1019.9 hPa South 11.6 km/h 18.5 km/h 50 % 0 mm
19:40 17.6 °C 7 °C 1019.9 hPa SSE 17.1 km/h 25.9 km/h 50 % 0 mm
19:45 17.5 °C 7.6 °C 1019.9 hPa South 13.2 km/h 20.4 km/h 52 % 0 mm
19:50 17.3 °C 7.7 °C 1020.2 hPa SSW 11.1 km/h 18.5 km/h 53 % 0 mm
19:55 17.2 °C 7.8 °C 1020.2 hPa South 20.4 km/h 35.2 km/h 54 % 0 mm
20:00 17.1 °C 8.3 °C 1020.2 hPa SSE 17.9 km/h 25.9 km/h 56 % 0 mm
20:05 16.9 °C 8.3 °C 1020.2 hPa South 20.1 km/h 29.6 km/h 57 % 0 mm
20:10 16.7 °C 8.3 °C 1020.5 hPa SSE 10.3 km/h 16.7 km/h 58 % 0 mm
20:15 16.4 °C 8.4 °C 1020.5 hPa South 17.4 km/h 27.8 km/h 59 % 0 mm
20:20 16.2 °C 8.4 °C 1020.5 hPa SSW 12.1 km/h 27.8 km/h 60 % 0 mm
20:25 16 °C 8.2 °C 1020.5 hPa South 11.4 km/h 20.4 km/h 60 % 0 mm
20:30 15.8 °C 8 °C 1020.9 hPa South 16.3 km/h 18.5 km/h 60 % 0 mm
20:35 15.6 °C 8.1 °C 1020.5 hPa South 13.5 km/h 20.4 km/h 61 % 0 mm
20:40 15.4 °C 7.9 °C 1020.9 hPa South 11.1 km/h 18.5 km/h 61 % 0 mm
20:45 15.3 °C 8.1 °C 1020.9 hPa South 8.5 km/h 18.5 km/h 62 % 0 mm
20:50 15.2 °C 7.9 °C 1020.9 hPa South 12.4 km/h 22.2 km/h 62 % 0 mm
20:55 15.1 °C 8.1 °C 1021.2 hPa South 17.2 km/h 22.2 km/h 63 % 0 mm
21:00 14.9 °C 7.9 °C 1021.2 hPa South 14.6 km/h 25.9 km/h 63 % 0 mm
21:05 14.8 °C 7.8 °C 1021.2 hPa South 13.7 km/h 22.5 km/h 63 % 0 mm
21:10 14.7 °C 7.7 °C 1021.2 hPa South 10.9 km/h 16.7 km/h 63 % 0 mm
21:15 14.6 °C 7.8 °C 1021.2 hPa South 13 km/h 24.1 km/h 64 % 0 mm
21:20 14.4 °C 7.7 °C 1021.2 hPa South 15.3 km/h 24.1 km/h 64 % 0 mm
21:25 14.3 °C 7.8 °C 1021.6 hPa South 6.9 km/h 14.8 km/h 65 % 0 mm
21:30 14.1 °C 7.6 °C 1021.6 hPa South 11.3 km/h 20.4 km/h 65 % 0 mm
21:35 14 °C 7.7 °C 1021.6 hPa South 12.1 km/h 18.5 km/h 66 % 0 mm
21:40 13.9 °C 7.6 °C 1021.6 hPa South 11.9 km/h 16.7 km/h 66 % 0 mm
21:45 13.8 °C 7.6 °C 1021.6 hPa South 12.9 km/h 18.5 km/h 66 % 0 mm
21:50 13.6 °C 7.6 °C 1021.9 hPa South 8.5 km/h 16.7 km/h 67 % 0 mm
21:55 13.5 °C 7.7 °C 1021.9 hPa South 16.1 km/h 27.4 km/h 68 % 0 mm
22:00 13.5 °C 7.9 °C 1021.9 hPa South 13.8 km/h 20.4 km/h 69 % 0 mm
22:05 13.4 °C 8 °C 1021.9 hPa South 10.8 km/h 18.5 km/h 70 % 0 mm
22:10 13.3 °C 8.2 °C 1021.9 hPa South 12.9 km/h 20.4 km/h 71 % 0 mm
22:15 13.2 °C 8.3 °C 1021.9 hPa North 15.4 km/h 27.8 km/h 72 % 0 mm
22:20 13.2 °C 8.4 °C 1022.2 hPa South 12.6 km/h 18.5 km/h 73 % 0 mm
22:25 13.1 °C 8.5 °C 1022.2 hPa SSE 13.7 km/h 22.2 km/h 74 % 0 mm
22:30 12.9 °C 8.6 °C 1022.2 hPa South 13.2 km/h 18.5 km/h 75 % 0 mm
22:35 12.9 °C 8.6 °C 1022.2 hPa SSE 9.8 km/h 13 km/h 75 % 0 mm
22:40 12.7 °C 8.6 °C 1022.2 hPa South 10.1 km/h 18.5 km/h 76 % 0 mm
22:45 12.7 °C 8.7 °C 1022.2 hPa South 6.8 km/h 14.8 km/h 77 % 0 mm
22:50 12.6 °C 8.6 °C 1022.2 hPa South 8.9 km/h 11.1 km/h 77 % 0 mm
22:55 12.4 °C 8.7 °C 1022.2 hPa South 9.5 km/h 13 km/h 78 % 0 mm
23:00 12.4 °C 8.7 °C 1022.6 hPa South 10.8 km/h 18.5 km/h 78 % 0 mm
23:05 12.3 °C 8.7 °C 1022.6 hPa South 14 km/h 20.4 km/h 79 % 0 mm
23:10 12.2 °C 8.8 °C 1022.6 hPa North 8.2 km/h 14.5 km/h 80 % 0 mm
23:15 12.1 °C 8.8 °C 1022.6 hPa South 11.6 km/h 16.1 km/h 80 % 0 mm
23:20 12.1 °C 8.9 °C 1022.6 hPa North 11.4 km/h 18.5 km/h 81 % 0 mm
23:25 12 °C 8.8 °C 1022.6 hPa South 9.7 km/h 13 km/h 81 % 0 mm
23:30 11.9 °C 8.8 °C 1022.6 hPa North 8.5 km/h 13 km/h 81 % 0 mm
23:35 11.8 °C 8.7 °C 1022.6 hPa South 10.8 km/h 13 km/h 81 % 0 mm
23:40 11.8 °C 8.8 °C 1022.6 hPa South 11.6 km/h 20.4 km/h 82 % 0 mm
23:45 11.7 °C 8.7 °C 1022.6 hPa South 9.2 km/h 13 km/h 82 % 0 mm
23:50 11.6 °C 8.7 °C 1022.6 hPa South 12.2 km/h 22.2 km/h 82 % 0 mm
23:55 11.6 °C 8.8 °C 1022.6 hPa South 5.8 km/h 14.5 km/h 83 % 0 mm
Ararat Weather
Compliments of Weather Underground - 2.25 mb
Click here to send mail.


ABOUT

Live weather data from Ararat, Victoria, Australia, 3377
Data uploaded from Cumulus every 5 minutes to Weather Underground.
This site then downloads the raw data for formatting and display.
Metric and imperial data can be displayed. Graphs and historical data available.
Includes Sun and Moon times and rain image live from BOM.

Check out Ararat Weather on Facebook, Twitter and Google +

Help support ongoing costs by checking out the ads





Follow @AraratWeather